To NAV CANADA Home Page Login to a new session Search on AWWS site Disclaimer Vers la page française équivalente Tips FAQ What's new on the site To the Forecasts and Observations / NOTAM section To "File a Flight Plan" website Publications and other links Update of the User's profile FIC Telephone Numbers My Weather Data Folder Route Weather Data Regional Weather Data Local Weather Data To the Forecasts and Observations / NOTAM section
Request Generated 04/24/2019 at 16:27:50 UTC . Weather information available at that time is displayed.

METAR/TAF

TESLIN/YT    

METAR CYZW 241600Z 16006KT 160V240 30SM FEW048 SCT120 M00/M12 A3004 RMK CU2AC1 SLP212=
LWIS CYZW 241500Z AUTO 31004KT 260V330 M02/M12 A3003=
LWIS CYZW 241400Z AUTO 23006KT M03/M12 A3002=

*** REMARK        : Forecast period has ended; this was the last TAF issued
*** REMARQUE : La période de prévision est échue; ceci était le dernier TAF qui a été émis
TAF CYZW 231738Z 2318/2324 15010KT P6SM BKN040 TEMPO 2318/2321 4SM
-SHSN PROB30 2319/2321 1SM -TSSN BR OVC040CB
FM232100 22012KT P6SM BKN050 TEMPO 2321/2324 4SM -SHSN PROB30
2321/2324 1SM -TSSN BR OVC040CB
RMK NXT FCST WILL BE ISSUED AT 241745Z=
Your time UTC time
Weather data provided by Environment Canada and NAV CANADA